sensor_id;sensor_type;location;lat;lon;timestamp;P1;durP1;ratioP1;P2;durP2;ratioP2
69991;SDS011;57332;51.320;-0.580;2024-03-08T00:02:15;38.22;;;12.85;;
69991;SDS011;57332;51.320;-0.580;2024-03-08T00:04:42;40.08;;;13.52;;
69991;SDS011;57332;51.320;-0.580;2024-03-08T00:07:09;40.55;;;14.50;;
69991;SDS011;57332;51.320;-0.580;2024-03-08T00:09:36;37.42;;;12.63;;
69991;SDS011;57332;51.320;-0.580;2024-03-08T00:12:03;39.47;;;12.32;;
69991;SDS011;57332;51.320;-0.580;2024-03-08T00:14:30;42.03;;;12.95;;
69991;SDS011;57332;51.320;-0.580;2024-03-08T00:16:57;39.60;;;14.45;;
69991;SDS011;57332;51.320;-0.580;2024-03-08T00:19:24;38.78;;;13.05;;
69991;SDS011;57332;51.320;-0.580;2024-03-08T00:21:51;36.63;;;12.65;;
69991;SDS011;57332;51.320;-0.580;2024-03-08T00:24:18;42.97;;;13.35;;
69991;SDS011;57332;51.320;-0.580;2024-03-08T00:26:44;40.38;;;12.70;;
69991;SDS011;57332;51.320;-0.580;2024-03-08T00:29:12;44.00;;;15.18;;
69991;SDS011;57332;51.320;-0.580;2024-03-08T00:31:39;43.55;;;15.68;;
69991;SDS011;57332;51.320;-0.580;2024-03-08T00:34:06;38.65;;;13.00;;
69991;SDS011;57332;51.320;-0.580;2024-03-08T00:36:33;37.58;;;14.35;;
69991;SDS011;57332;51.320;-0.580;2024-03-08T00:39:00;41.22;;;14.90;;
69991;SDS011;57332;51.320;-0.580;2024-03-08T00:41:28;40.72;;;13.43;;
69991;SDS011;57332;51.320;-0.580;2024-03-08T00:43:55;39.15;;;13.52;;
69991;SDS011;57332;51.320;-0.580;2024-03-08T00:46:22;40.55;;;13.80;;
69991;SDS011;57332;51.320;-0.580;2024-03-08T00:48:49;37.55;;;13.45;;
69991;SDS011;57332;51.320;-0.580;2024-03-08T00:51:16;41.45;;;13.32;;
69991;SDS011;57332;51.320;-0.580;2024-03-08T00:53:43;42.90;;;15.02;;
69991;SDS011;57332;51.320;-0.580;2024-03-08T00:56:10;40.45;;;14.10;;
69991;SDS011;57332;51.320;-0.580;2024-03-08T00:58:37;38.60;;;14.57;;
69991;SDS011;57332;51.320;-0.580;2024-03-08T01:01:04;39.03;;;13.77;;
69991;SDS011;57332;51.320;-0.580;2024-03-08T01:03:31;40.60;;;14.15;;
69991;SDS011;57332;51.320;-0.580;2024-03-08T01:05:58;37.08;;;13.35;;
69991;SDS011;57332;51.320;-0.580;2024-03-08T01:08:28;42.30;;;13.75;;
69991;SDS011;57332;51.320;-0.580;2024-03-08T01:10:55;34.13;;;13.35;;
69991;SDS011;57332;51.320;-0.580;2024-03-08T01:13:22;40.60;;;14.73;;
69991;SDS011;57332;51.320;-0.580;2024-03-08T01:15:48;43.33;;;14.07;;
69991;SDS011;57332;51.320;-0.580;2024-03-08T01:18:15;38.38;;;13.35;;
69991;SDS011;57332;51.320;-0.580;2024-03-08T01:20:42;40.47;;;13.35;;
69991;SDS011;57332;51.320;-0.580;2024-03-08T01:23:09;37.33;;;13.43;;
69991;SDS011;57332;51.320;-0.580;2024-03-08T01:25:36;45.03;;;14.50;;
69991;SDS011;57332;51.320;-0.580;2024-03-08T01:28:03;40.78;;;14.38;;
69991;SDS011;57332;51.320;-0.580;2024-03-08T01:30:30;46.08;;;14.38;;
69991;SDS011;57332;51.320;-0.580;2024-03-08T01:32:59;42.58;;;13.30;;
69991;SDS011;57332;51.320;-0.580;2024-03-08T01:35:26;38.60;;;14.02;;
69991;SDS011;57332;51.320;-0.580;2024-03-08T01:37:54;40.78;;;14.45;;
69991;SDS011;57332;51.320;-0.580;2024-03-08T01:40:21;41.47;;;12.68;;
69991;SDS011;57332;51.320;-0.580;2024-03-08T01:42:48;47.05;;;15.50;;
69991;SDS011;57332;51.320;-0.580;2024-03-08T01:45:14;40.55;;;14.00;;
69991;SDS011;57332;51.320;-0.580;2024-03-08T01:47:43;37.47;;;13.98;;
69991;SDS011;57332;51.320;-0.580;2024-03-08T01:50:10;39.05;;;13.27;;
69991;SDS011;57332;51.320;-0.580;2024-03-08T01:52:37;41.72;;;14.43;;
69991;SDS011;57332;51.320;-0.580;2024-03-08T01:55:04;46.50;;;15.00;;
69991;SDS011;57332;51.320;-0.580;2024-03-08T01:57:34;37.72;;;14.27;;
69991;SDS011;57332;51.320;-0.580;2024-03-08T02:00:01;41.28;;;15.68;;
69991;SDS011;57332;51.320;-0.580;2024-03-08T02:02:32;41.85;;;13.02;;
69991;SDS011;57332;51.320;-0.580;2024-03-08T02:05:00;40.08;;;14.95;;
69991;SDS011;57332;51.320;-0.580;2024-03-08T02:07:27;39.53;;;15.07;;
69991;SDS011;57332;51.320;-0.580;2024-03-08T02:09:53;41.55;;;14.00;;
69991;SDS011;57332;51.320;-0.580;2024-03-08T02:12:20;42.42;;;14.77;;
69991;SDS011;57332;51.320;-0.580;2024-03-08T02:14:48;42.22;;;13.60;;
69991;SDS011;57332;51.320;-0.580;2024-03-08T02:17:15;38.97;;;13.65;;
69991;SDS011;57332;51.320;-0.580;2024-03-08T02:19:42;46.30;;;14.07;;
69991;SDS011;57332;51.320;-0.580;2024-03-08T02:22:08;47.17;;;14.07;;
69991;SDS011;57332;51.320;-0.580;2024-03-08T02:24:35;39.70;;;13.77;;
69991;SDS011;57332;51.320;-0.580;2024-03-08T02:27:02;41.40;;;14.20;;
69991;SDS011;57332;51.320;-0.580;2024-03-08T02:29:29;40.88;;;13.02;;
69991;SDS011;57332;51.320;-0.580;2024-03-08T02:31:58;46.83;;;13.98;;
69991;SDS011;57332;51.320;-0.580;2024-03-08T02:34:25;41.55;;;13.95;;
69991;SDS011;57332;51.320;-0.580;2024-03-08T02:36:52;41.05;;;14.25;;
69991;SDS011;57332;51.320;-0.580;2024-03-08T02:39:18;43.22;;;13.80;;
69991;SDS011;57332;51.320;-0.580;2024-03-08T02:41:46;41.25;;;13.02;;
69991;SDS011;57332;51.320;-0.580;2024-03-08T02:44:13;48.22;;;14.98;;
69991;SDS011;57332;51.320;-0.580;2024-03-08T02:46:41;41.92;;;14.43;;
69991;SDS011;57332;51.320;-0.580;2024-03-08T02:49:08;45.05;;;14.43;;
69991;SDS011;57332;51.320;-0.580;2024-03-08T02:51:35;43.50;;;15.13;;
69991;SDS011;57332;51.320;-0.580;2024-03-08T02:54:02;40.47;;;13.80;;
69991;SDS011;57332;51.320;-0.580;2024-03-08T02:56:31;44.92;;;15.45;;
69991;SDS011;57332;51.320;-0.580;2024-03-08T02:59:01;43.63;;;15.40;;
69991;SDS011;57332;51.320;-0.580;2024-03-08T03:01:29;42.10;;;14.82;;
69991;SDS011;57332;51.320;-0.580;2024-03-08T03:03:56;42.45;;;13.70;;
69991;SDS011;57332;51.320;-0.580;2024-03-08T03:06:23;46.65;;;14.25;;
69991;SDS011;57332;51.320;-0.580;2024-03-08T03:08:50;44.00;;;14.38;;
69991;SDS011;57332;51.320;-0.580;2024-03-08T03:11:18;40.38;;;13.68;;
69991;SDS011;57332;51.320;-0.580;2024-03-08T03:13:45;44.05;;;15.07;;
69991;SDS011;57332;51.320;-0.580;2024-03-08T03:16:18;42.53;;;15.32;;
69991;SDS011;57332;51.320;-0.580;2024-03-08T03:18:46;43.63;;;13.88;;
69991;SDS011;57332;51.320;-0.580;2024-03-08T03:21:13;40.42;;;14.77;;
69991;SDS011;57332;51.320;-0.580;2024-03-08T03:23:41;41.15;;;14.25;;
69991;SDS011;57332;51.320;-0.580;2024-03-08T03:26:09;43.03;;;15.20;;
69991;SDS011;57332;51.320;-0.580;2024-03-08T03:28:39;46.42;;;14.55;;
69991;SDS011;57332;51.320;-0.580;2024-03-08T03:31:06;39.55;;;15.07;;
69991;SDS011;57332;51.320;-0.580;2024-03-08T03:33:36;37.13;;;13.35;;
69991;SDS011;57332;51.320;-0.580;2024-03-08T03:36:04;43.55;;;13.52;;
69991;SDS011;57332;51.320;-0.580;2024-03-08T03:38:32;38.03;;;14.13;;
69991;SDS011;57332;51.320;-0.580;2024-03-08T03:41:00;40.83;;;13.70;;
69991;SDS011;57332;51.320;-0.580;2024-03-08T03:43:37;45.30;;;13.68;;
69991;SDS011;57332;51.320;-0.580;2024-03-08T03:46:07;39.83;;;13.05;;
69991;SDS011;57332;51.320;-0.580;2024-03-08T03:48:34;43.05;;;14.02;;
69991;SDS011;57332;51.320;-0.580;2024-03-08T03:51:01;38.88;;;13.77;;
69991;SDS011;57332;51.320;-0.580;2024-03-08T03:53:28;38.72;;;12.68;;
69991;SDS011;57332;51.320;-0.580;2024-03-08T03:55:55;36.20;;;12.75;;
69991;SDS011;57332;51.320;-0.580;2024-03-08T03:58:22;42.35;;;13.52;;
69991;SDS011;57332;51.320;-0.580;2024-03-08T04:00:49;40.15;;;12.95;;
69991;SDS011;57332;51.320;-0.580;2024-03-08T04:03:16;35.40;;;12.60;;
69991;SDS011;57332;51.320;-0.580;2024-03-08T04:05:43;40.47;;;13.13;;
69991;SDS011;57332;51.320;-0.580;2024-03-08T04:08:10;41.78;;;13.77;;
69991;SDS011;57332;51.320;-0.580;2024-03-08T04:10:37;37.13;;;13.60;;
69991;SDS011;57332;51.320;-0.580;2024-03-08T04:13:04;35.58;;;13.00;;
69991;SDS011;57332;51.320;-0.580;2024-03-08T04:15:31;35.60;;;12.15;;
69991;SDS011;57332;51.320;-0.580;2024-03-08T04:17:58;38.90;;;12.48;;
69991;SDS011;57332;51.320;-0.580;2024-03-08T04:20:27;37.00;;;13.07;;
69991;SDS011;57332;51.320;-0.580;2024-03-08T04:22:54;37.45;;;12.02;;
69991;SDS011;57332;51.320;-0.580;2024-03-08T04:25:21;35.47;;;12.63;;
69991;SDS011;57332;51.320;-0.580;2024-03-08T04:27:48;38.83;;;13.80;;
69991;SDS011;57332;51.320;-0.580;2024-03-08T04:30:16;39.13;;;12.70;;
69991;SDS011;57332;51.320;-0.580;2024-03-08T04:32:43;38.20;;;13.35;;
69991;SDS011;57332;51.320;-0.580;2024-03-08T04:35:10;37.92;;;12.80;;
69991;SDS011;57332;51.320;-0.580;2024-03-08T04:37:39;34.15;;;11.90;;
69991;SDS011;57332;51.320;-0.580;2024-03-08T04:40:06;35.90;;;12.88;;
69991;SDS011;57332;51.320;-0.580;2024-03-08T04:42:33;32.03;;;11.50;;
69991;SDS011;57332;51.320;-0.580;2024-03-08T04:45:01;32.22;;;11.32;;
69991;SDS011;57332;51.320;-0.580;2024-03-08T04:47:28;32.03;;;11.07;;
69991;SDS011;57332;51.320;-0.580;2024-03-08T04:49:55;39.25;;;12.48;;
69991;SDS011;57332;51.320;-0.580;2024-03-08T04:52:23;37.38;;;13.48;;
69991;SDS011;57332;51.320;-0.580;2024-03-08T04:54:50;33.85;;;12.55;;
69991;SDS011;57332;51.320;-0.580;2024-03-08T04:57:17;30.27;;;10.80;;
69991;SDS011;57332;51.320;-0.580;2024-03-08T04:59:47;35.38;;;11.93;;
69991;SDS011;57332;51.320;-0.580;2024-03-08T05:02:14;35.67;;;11.68;;
69991;SDS011;57332;51.320;-0.580;2024-03-08T05:04:41;36.10;;;11.68;;
69991;SDS011;57332;51.320;-0.580;2024-03-08T05:07:09;37.50;;;12.30;;
69991;SDS011;57332;51.320;-0.580;2024-03-08T05:09:36;39.80;;;11.90;;
69991;SDS011;57332;51.320;-0.580;2024-03-08T05:12:04;37.90;;;12.30;;
69991;SDS011;57332;51.320;-0.580;2024-03-08T05:14:31;40.53;;;12.55;;
69991;SDS011;57332;51.320;-0.580;2024-03-08T05:16:58;37.42;;;12.15;;
69991;SDS011;57332;51.320;-0.580;2024-03-08T05:19:27;37.95;;;12.75;;
69991;SDS011;57332;51.320;-0.580;2024-03-08T05:21:56;34.03;;;11.98;;
69991;SDS011;57332;51.320;-0.580;2024-03-08T05:24:23;33.50;;;13.73;;
69991;SDS011;57332;51.320;-0.580;2024-03-08T05:26:50;36.75;;;11.45;;
69991;SDS011;57332;51.320;-0.580;2024-03-08T05:29:17;34.63;;;11.15;;
69991;SDS011;57332;51.320;-0.580;2024-03-08T05:34:11;37.22;;;12.25;;
69991;SDS011;57332;51.320;-0.580;2024-03-08T05:36:41;32.03;;;10.98;;
69991;SDS011;57332;51.320;-0.580;2024-03-08T05:39:13;36.53;;;12.45;;
69991;SDS011;57332;51.320;-0.580;2024-03-08T05:41:40;32.45;;;11.15;;
69991;SDS011;57332;51.320;-0.580;2024-03-08T05:44:07;31.90;;;11.57;;
69991;SDS011;57332;51.320;-0.580;2024-03-08T05:46:35;37.67;;;13.18;;
69991;SDS011;57332;51.320;-0.580;2024-03-08T05:49:05;32.53;;;11.93;;
69991;SDS011;57332;51.320;-0.580;2024-03-08T05:51:36;31.30;;;11.60;;
69991;SDS011;57332;51.320;-0.580;2024-03-08T05:54:03;33.72;;;11.77;;
69991;SDS011;57332;51.320;-0.580;2024-03-08T05:56:32;32.30;;;12.02;;
69991;SDS011;57332;51.320;-0.580;2024-03-08T05:59:00;32.85;;;10.80;;
69991;SDS011;57332;51.320;-0.580;2024-03-08T06:01:27;30.58;;;11.93;;
69991;SDS011;57332;51.320;-0.580;2024-03-08T06:03:54;37.22;;;12.02;;
69991;SDS011;57332;51.320;-0.580;2024-03-08T06:06:25;33.97;;;12.27;;
69991;SDS011;57332;51.320;-0.580;2024-03-08T06:08:52;35.20;;;11.52;;
69991;SDS011;57332;51.320;-0.580;2024-03-08T06:11:20;33.15;;;12.02;;
69991;SDS011;57332;51.320;-0.580;2024-03-08T06:13:47;33.60;;;11.98;;
69991;SDS011;57332;51.320;-0.580;2024-03-08T06:16:14;36.08;;;12.18;;
69991;SDS011;57332;51.320;-0.580;2024-03-08T06:18:41;32.65;;;11.27;;
69991;SDS011;57332;51.320;-0.580;2024-03-08T06:21:09;36.65;;;11.90;;
69991;SDS011;57332;51.320;-0.580;2024-03-08T06:23:38;33.70;;;12.25;;
69991;SDS011;57332;51.320;-0.580;2024-03-08T06:26:05;34.58;;;10.95;;
69991;SDS011;57332;51.320;-0.580;2024-03-08T06:28:32;37.50;;;11.43;;
69991;SDS011;57332;51.320;-0.580;2024-03-08T06:30:59;39.05;;;12.02;;
69991;SDS011;57332;51.320;-0.580;2024-03-08T06:33:26;31.25;;;12.13;;
69991;SDS011;57332;51.320;-0.580;2024-03-08T06:35:54;28.92;;;10.43;;
69991;SDS011;57332;51.320;-0.580;2024-03-08T06:38:24;35.28;;;12.38;;
69991;SDS011;57332;51.320;-0.580;2024-03-08T06:40:51;33.30;;;11.60;;
69991;SDS011;57332;51.320;-0.580;2024-03-08T06:43:18;30.17;;;11.80;;
69991;SDS011;57332;51.320;-0.580;2024-03-08T06:45:46;35.58;;;11.60;;
69991;SDS011;57332;51.320;-0.580;2024-03-08T06:48:18;34.10;;;11.82;;
69991;SDS011;57332;51.320;-0.580;2024-03-08T06:50:46;33.80;;;11.32;;
69991;SDS011;57332;51.320;-0.580;2024-03-08T06:53:14;33.72;;;11.90;;
69991;SDS011;57332;51.320;-0.580;2024-03-08T06:55:43;32.63;;;13.10;;
69991;SDS011;57332;51.320;-0.580;2024-03-08T06:58:11;29.98;;;10.65;;
69991;SDS011;57332;51.320;-0.580;2024-03-08T07:00:38;33.47;;;10.60;;
69991;SDS011;57332;51.320;-0.580;2024-03-08T07:03:08;32.90;;;11.40;;
69991;SDS011;57332;51.320;-0.580;2024-03-08T07:05:39;35.45;;;11.50;;
69991;SDS011;57332;51.320;-0.580;2024-03-08T07:08:07;33.92;;;12.35;;
69991;SDS011;57332;51.320;-0.580;2024-03-08T07:10:34;33.15;;;12.10;;
69991;SDS011;57332;51.320;-0.580;2024-03-08T07:13:01;32.78;;;12.10;;
69991;SDS011;57332;51.320;-0.580;2024-03-08T07:15:28;32.90;;;11.40;;
69991;SDS011;57332;51.320;-0.580;2024-03-08T07:17:55;36.47;;;12.55;;
69991;SDS011;57332;51.320;-0.580;2024-03-08T07:20:22;35.53;;;12.35;;
69991;SDS011;57332;51.320;-0.580;2024-03-08T07:22:49;34.88;;;12.02;;
69991;SDS011;57332;51.320;-0.580;2024-03-08T07:25:19;32.53;;;11.40;;
69991;SDS011;57332;51.320;-0.580;2024-03-08T07:27:48;31.23;;;11.25;;
69991;SDS011;57332;51.320;-0.580;2024-03-08T07:30:15;34.17;;;11.85;;
69991;SDS011;57332;51.320;-0.580;2024-03-08T07:33:01;31.98;;;12.30;;
69991;SDS011;57332;51.320;-0.580;2024-03-08T07:35:29;35.35;;;12.70;;
69991;SDS011;57332;51.320;-0.580;2024-03-08T07:37:56;35.78;;;12.05;;
69991;SDS011;57332;51.320;-0.580;2024-03-08T07:40:23;38.17;;;11.23;;
69991;SDS011;57332;51.320;-0.580;2024-03-08T07:42:50;39.88;;;13.32;;
69991;SDS011;57332;51.320;-0.580;2024-03-08T07:45:17;34.38;;;11.90;;
69991;SDS011;57332;51.320;-0.580;2024-03-08T07:47:44;40.55;;;14.07;;
69991;SDS011;57332;51.320;-0.580;2024-03-08T07:50:11;35.70;;;12.40;;
69991;SDS011;57332;51.320;-0.580;2024-03-08T07:52:42;35.05;;;12.27;;
69991;SDS011;57332;51.320;-0.580;2024-03-08T07:55:09;38.60;;;13.63;;
69991;SDS011;57332;51.320;-0.580;2024-03-08T07:57:38;33.70;;;12.73;;
69991;SDS011;57332;51.320;-0.580;2024-03-08T08:00:05;30.92;;;12.07;;
69991;SDS011;57332;51.320;-0.580;2024-03-08T08:02:35;34.50;;;11.48;;
69991;SDS011;57332;51.320;-0.580;2024-03-08T08:05:06;35.30;;;12.02;;
69991;SDS011;57332;51.320;-0.580;2024-03-08T08:07:33;35.90;;;12.00;;
69991;SDS011;57332;51.320;-0.580;2024-03-08T08:10:00;35.38;;;11.88;;
69991;SDS011;57332;51.320;-0.580;2024-03-08T08:12:27;34.20;;;13.38;;
69991;SDS011;57332;51.320;-0.580;2024-03-08T08:14:55;34.03;;;11.57;;
69991;SDS011;57332;51.320;-0.580;2024-03-08T08:17:23;37.15;;;11.68;;
69991;SDS011;57332;51.320;-0.580;2024-03-08T08:19:50;34.80;;;11.13;;
69991;SDS011;57332;51.320;-0.580;2024-03-08T08:22:17;31.42;;;11.75;;
69991;SDS011;57332;51.320;-0.580;2024-03-08T08:24:45;37.08;;;11.68;;
69991;SDS011;57332;51.320;-0.580;2024-03-08T08:27:12;32.85;;;11.23;;
69991;SDS011;57332;51.320;-0.580;2024-03-08T08:29:39;32.70;;;11.50;;
69991;SDS011;57332;51.320;-0.580;2024-03-08T08:32:06;34.17;;;11.82;;
69991;SDS011;57332;51.320;-0.580;2024-03-08T08:34:33;33.58;;;11.38;;
69991;SDS011;57332;51.320;-0.580;2024-03-08T08:37:00;31.05;;;12.23;;
69991;SDS011;57332;51.320;-0.580;2024-03-08T08:39:27;33.88;;;11.20;;
69991;SDS011;57332;51.320;-0.580;2024-03-08T08:41:54;32.78;;;10.82;;
69991;SDS011;57332;51.320;-0.580;2024-03-08T08:44:22;33.70;;;11.43;;
69991;SDS011;57332;51.320;-0.580;2024-03-08T08:46:49;29.08;;;10.15;;
69991;SDS011;57332;51.320;-0.580;2024-03-08T08:51:50;34.00;;;10.35;;
69991;SDS011;57332;51.320;-0.580;2024-03-08T08:54:18;28.83;;;10.18;;
69991;SDS011;57332;51.320;-0.580;2024-03-08T08:56:45;31.13;;;11.65;;
69991;SDS011;57332;51.320;-0.580;2024-03-08T08:59:12;29.10;;;10.38;;
69991;SDS011;57332;51.320;-0.580;2024-03-08T09:01:49;31.58;;;10.60;;
69991;SDS011;57332;51.320;-0.580;2024-03-08T09:04:17;29.23;;;10.02;;
69991;SDS011;57332;51.320;-0.580;2024-03-08T09:06:44;29.02;;;10.48;;
69991;SDS011;57332;51.320;-0.580;2024-03-08T09:09:11;33.85;;;11.57;;
69991;SDS011;57332;51.320;-0.580;2024-03-08T09:11:40;27.83;;;11.10;;
69991;SDS011;57332;51.320;-0.580;2024-03-08T09:14:10;31.67;;;10.23;;
69991;SDS011;57332;51.320;-0.580;2024-03-08T09:16:39;34.50;;;11.02;;
69991;SDS011;57332;51.320;-0.580;2024-03-08T09:19:06;31.08;;;10.98;;
69991;SDS011;57332;51.320;-0.580;2024-03-08T09:21:33;34.22;;;12.40;;
69991;SDS011;57332;51.320;-0.580;2024-03-08T09:24:01;33.22;;;11.82;;
69991;SDS011;57332;51.320;-0.580;2024-03-08T09:26:28;29.45;;;10.43;;
69991;SDS011;57332;51.320;-0.580;2024-03-08T09:28:55;29.20;;;11.48;;
69991;SDS011;57332;51.320;-0.580;2024-03-08T09:31:23;28.25;;;11.02;;
69991;SDS011;57332;51.320;-0.580;2024-03-08T09:33:50;30.15;;;10.88;;
69991;SDS011;57332;51.320;-0.580;2024-03-08T09:36:17;29.40;;;11.38;;
69991;SDS011;57332;51.320;-0.580;2024-03-08T09:38:44;25.50;;;9.65;;
69991;SDS011;57332;51.320;-0.580;2024-03-08T09:41:11;30.02;;;9.90;;
69991;SDS011;57332;51.320;-0.580;2024-03-08T09:43:39;28.80;;;10.38;;
69991;SDS011;57332;51.320;-0.580;2024-03-08T09:46:06;24.27;;;9.43;;
69991;SDS011;57332;51.320;-0.580;2024-03-08T09:48:34;29.55;;;9.93;;
69991;SDS011;57332;51.320;-0.580;2024-03-08T09:51:02;31.02;;;10.27;;
69991;SDS011;57332;51.320;-0.580;2024-03-08T09:53:29;29.35;;;10.40;;
69991;SDS011;57332;51.320;-0.580;2024-03-08T09:55:57;30.25;;;10.27;;
69991;SDS011;57332;51.320;-0.580;2024-03-08T09:58:24;26.02;;;10.05;;
69991;SDS011;57332;51.320;-0.580;2024-03-08T10:01:00;26.40;;;9.13;;
69991;SDS011;57332;51.320;-0.580;2024-03-08T10:06:01;28.40;;;9.52;;
69991;SDS011;57332;51.320;-0.580;2024-03-08T10:08:28;26.88;;;9.38;;
69991;SDS011;57332;51.320;-0.580;2024-03-08T10:10:56;26.60;;;8.73;;
69991;SDS011;57332;51.320;-0.580;2024-03-08T10:13:25;28.80;;;9.50;;
69991;SDS011;57332;51.320;-0.580;2024-03-08T10:15:55;26.25;;;9.88;;
69991;SDS011;57332;51.320;-0.580;2024-03-08T10:18:22;26.60;;;9.85;;
69991;SDS011;57332;51.320;-0.580;2024-03-08T10:21:02;27.83;;;9.18;;
69991;SDS011;57332;51.320;-0.580;2024-03-08T10:23:31;24.83;;;9.77;;
69991;SDS011;57332;51.320;-0.580;2024-03-08T10:26:08;22.00;;;8.98;;
69991;SDS011;57332;51.320;-0.580;2024-03-08T10:28:35;25.77;;;9.07;;
69991;SDS011;57332;51.320;-0.580;2024-03-08T10:31:03;23.10;;;9.25;;
69991;SDS011;57332;51.320;-0.580;2024-03-08T10:33:30;25.85;;;9.30;;
69991;SDS011;57332;51.320;-0.580;2024-03-08T10:35:57;22.17;;;9.85;;
69991;SDS011;57332;51.320;-0.580;2024-03-08T10:38:24;19.70;;;8.48;;
69991;SDS011;57332;51.320;-0.580;2024-03-08T10:40:53;24.80;;;8.70;;
69991;SDS011;57332;51.320;-0.580;2024-03-08T10:43:24;26.17;;;8.35;;
69991;SDS011;57332;51.320;-0.580;2024-03-08T10:45:58;23.30;;;8.70;;
69991;SDS011;57332;51.320;-0.580;2024-03-08T10:48:29;22.00;;;9.30;;
69991;SDS011;57332;51.320;-0.580;2024-03-08T10:51:05;24.67;;;9.10;;
69991;SDS011;57332;51.320;-0.580;2024-03-08T10:53:32;24.00;;;8.63;;
69991;SDS011;57332;51.320;-0.580;2024-03-08T10:56:00;23.55;;;9.57;;
69991;SDS011;57332;51.320;-0.580;2024-03-08T10:58:29;23.13;;;8.98;;
69991;SDS011;57332;51.320;-0.580;2024-03-08T11:00:56;23.10;;;9.77;;
69991;SDS011;57332;51.320;-0.580;2024-03-08T11:06:17;21.85;;;8.65;;
69991;SDS011;57332;51.320;-0.580;2024-03-08T11:08:45;21.88;;;8.48;;
69991;SDS011;57332;51.320;-0.580;2024-03-08T11:11:26;22.00;;;8.40;;
69991;SDS011;57332;51.320;-0.580;2024-03-08T11:14:02;22.52;;;8.75;;
69991;SDS011;57332;51.320;-0.580;2024-03-08T11:18:58;23.10;;;8.30;;
69991;SDS011;57332;51.320;-0.580;2024-03-08T11:21:31;19.20;;;8.52;;
69991;SDS011;57332;51.320;-0.580;2024-03-08T11:24:06;21.52;;;8.18;;
69991;SDS011;57332;51.320;-0.580;2024-03-08T11:26:34;20.63;;;8.25;;
69991;SDS011;57332;51.320;-0.580;2024-03-08T11:31:51;20.85;;;8.65;;
69991;SDS011;57332;51.320;-0.580;2024-03-08T11:34:19;19.95;;;7.95;;
69991;SDS011;57332;51.320;-0.580;2024-03-08T11:36:47;25.02;;;8.35;;
69991;SDS011;57332;51.320;-0.580;2024-03-08T11:39:16;16.75;;;8.48;;
69991;SDS011;57332;51.320;-0.580;2024-03-08T11:41:44;21.65;;;9.30;;
69991;SDS011;57332;51.320;-0.580;2024-03-08T11:44:12;20.50;;;8.00;;
69991;SDS011;57332;51.320;-0.580;2024-03-08T11:46:42;17.63;;;8.02;;
69991;SDS011;57332;51.320;-0.580;2024-03-08T11:49:14;19.50;;;7.82;;
69991;SDS011;57332;51.320;-0.580;2024-03-08T11:51:41;20.25;;;7.93;;
69991;SDS011;57332;51.320;-0.580;2024-03-08T11:54:11;19.88;;;7.80;;
69991;SDS011;57332;51.320;-0.580;2024-03-08T11:56:39;19.90;;;7.50;;
69991;SDS011;57332;51.320;-0.580;2024-03-08T11:59:11;18.85;;;7.72;;
69991;SDS011;57332;51.320;-0.580;2024-03-08T12:01:39;18.55;;;7.63;;
69991;SDS011;57332;51.320;-0.580;2024-03-08T12:04:06;18.15;;;7.35;;
69991;SDS011;57332;51.320;-0.580;2024-03-08T12:06:36;20.90;;;7.70;;
69991;SDS011;57332;51.320;-0.580;2024-03-08T12:09:12;19.83;;;8.73;;
69991;SDS011;57332;51.320;-0.580;2024-03-08T12:11:40;20.25;;;8.23;;
69991;SDS011;57332;51.320;-0.580;2024-03-08T12:14:07;19.05;;;8.38;;
69991;SDS011;57332;51.320;-0.580;2024-03-08T12:16:36;17.05;;;7.63;;
69991;SDS011;57332;51.320;-0.580;2024-03-08T12:19:02;20.23;;;7.70;;
69991;SDS011;57332;51.320;-0.580;2024-03-08T12:21:31;19.58;;;8.43;;
69991;SDS011;57332;51.320;-0.580;2024-03-08T12:26:29;18.85;;;7.15;;
69991;SDS011;57332;51.320;-0.580;2024-03-08T12:31:47;17.98;;;8.05;;
69991;SDS011;57332;51.320;-0.580;2024-03-08T12:34:14;18.38;;;7.78;;
69991;SDS011;57332;51.320;-0.580;2024-03-08T12:36:44;19.05;;;7.97;;
69991;SDS011;57332;51.320;-0.580;2024-03-08T12:39:11;17.95;;;7.28;;
69991;SDS011;57332;51.320;-0.580;2024-03-08T12:41:39;18.33;;;8.45;;
69991;SDS011;57332;51.320;-0.580;2024-03-08T12:44:07;18.73;;;8.05;;
69991;SDS011;57332;51.320;-0.580;2024-03-08T12:46:37;18.15;;;6.95;;
69991;SDS011;57332;51.320;-0.580;2024-03-08T12:49:07;19.67;;;7.80;;
69991;SDS011;57332;51.320;-0.580;2024-03-08T12:51:34;19.33;;;8.40;;
69991;SDS011;57332;51.320;-0.580;2024-03-08T12:54:02;20.23;;;8.43;;
69991;SDS011;57332;51.320;-0.580;2024-03-08T12:56:33;18.52;;;7.60;;
69991;SDS011;57332;51.320;-0.580;2024-03-08T12:59:01;19.05;;;7.75;;
69991;SDS011;57332;51.320;-0.580;2024-03-08T13:01:28;19.90;;;8.15;;
69991;SDS011;57332;51.320;-0.580;2024-03-08T13:03:55;20.65;;;8.57;;
69991;SDS011;57332;51.320;-0.580;2024-03-08T13:06:22;19.58;;;8.68;;
69991;SDS011;57332;51.320;-0.580;2024-03-08T13:08:51;20.10;;;8.45;;
69991;SDS011;57332;51.320;-0.580;2024-03-08T13:11:22;19.33;;;7.32;;
69991;SDS011;57332;51.320;-0.580;2024-03-08T13:13:50;20.33;;;8.43;;
69991;SDS011;57332;51.320;-0.580;2024-03-08T13:16:18;19.67;;;8.80;;
69991;SDS011;57332;51.320;-0.580;2024-03-08T13:18:46;21.20;;;8.05;;
69991;SDS011;57332;51.320;-0.580;2024-03-08T13:21:19;20.08;;;9.27;;
69991;SDS011;57332;51.320;-0.580;2024-03-08T13:23:46;22.42;;;8.25;;
69991;SDS011;57332;51.320;-0.580;2024-03-08T13:26:16;19.83;;;8.45;;
69991;SDS011;57332;51.320;-0.580;2024-03-08T13:28:43;21.55;;;8.07;;
69991;SDS011;57332;51.320;-0.580;2024-03-08T13:31:11;23.20;;;9.40;;
69991;SDS011;57332;51.320;-0.580;2024-03-08T13:33:38;24.98;;;9.82;;
69991;SDS011;57332;51.320;-0.580;2024-03-08T13:36:06;20.13;;;8.27;;
69991;SDS011;57332;51.320;-0.580;2024-03-08T13:38:36;22.38;;;8.73;;
69991;SDS011;57332;51.320;-0.580;2024-03-08T13:41:04;22.48;;;9.15;;
69991;SDS011;57332;51.320;-0.580;2024-03-08T13:43:31;20.45;;;8.23;;
69991;SDS011;57332;51.320;-0.580;2024-03-08T13:46:01;24.88;;;9.07;;
69991;SDS011;57332;51.320;-0.580;2024-03-08T13:48:28;25.52;;;10.18;;
69991;SDS011;57332;51.320;-0.580;2024-03-08T13:50:55;23.98;;;9.80;;
69991;SDS011;57332;51.320;-0.580;2024-03-08T13:53:23;22.42;;;9.25;;
69991;SDS011;57332;51.320;-0.580;2024-03-08T13:55:50;21.65;;;9.20;;
69991;SDS011;57332;51.320;-0.580;2024-03-08T13:58:17;23.65;;;10.13;;
69991;SDS011;57332;51.320;-0.580;2024-03-08T14:00:44;24.42;;;9.88;;
69991;SDS011;57332;51.320;-0.580;2024-03-08T14:03:14;24.25;;;10.82;;
69991;SDS011;57332;51.320;-0.580;2024-03-08T14:05:41;27.13;;;11.50;;
69991;SDS011;57332;51.320;-0.580;2024-03-08T14:08:09;28.17;;;12.35;;
69991;SDS011;57332;51.320;-0.580;2024-03-08T14:10:38;24.23;;;10.13;;
69991;SDS011;57332;51.320;-0.580;2024-03-08T14:13:05;25.40;;;11.07;;
69991;SDS011;57332;51.320;-0.580;2024-03-08T14:15:33;23.50;;;10.70;;
69991;SDS011;57332;51.320;-0.580;2024-03-08T14:18:01;25.95;;;10.20;;
69991;SDS011;57332;51.320;-0.580;2024-03-08T14:20:28;24.63;;;10.48;;
69991;SDS011;57332;51.320;-0.580;2024-03-08T14:22:55;24.63;;;11.32;;
69991;SDS011;57332;51.320;-0.580;2024-03-08T14:25:23;23.10;;;10.43;;
69991;SDS011;57332;51.320;-0.580;2024-03-08T14:27:51;26.35;;;10.50;;
69991;SDS011;57332;51.320;-0.580;2024-03-08T14:30:25;24.58;;;9.68;;
69991;SDS011;57332;51.320;-0.580;2024-03-08T14:33:21;25.88;;;11.50;;
69991;SDS011;57332;51.320;-0.580;2024-03-08T14:35:48;26.75;;;11.57;;
69991;SDS011;57332;51.320;-0.580;2024-03-08T14:38:16;26.30;;;11.10;;